Time;durP1;ratioP1;P1;durP2;ratioP2;P2;SDS_P1;SDS_P2;PMS_P1;PMS_P2;Temp;Humidity;BMP_temperature;BMP_pressure;BME280_temperature;BME280_humidity;BME280_pressure;Samples;Min_cycle;Max_cycle;Signal;HPM_P1;HPM_P2
2021/09/16 08:21:00;;;;;;;23.25;9.00;;;;;;;;;;2081709;28;100142;-16
2021/09/16 08:22:01;;;;;;;19.60;8.45;;;;;;;;;;2081039;28;99879;-16
2021/09/16 08:23:03;;;;;;;25.92;9.40;;;;;;;;;;2080463;27;99984;-18
2021/09/16 08:24:04;;;;;;;17.83;7.93;;;;;;;;;;2080061;28;99961;-18
2021/09/16 08:25:08;;;;;;;20.25;7.47;;;;;;;;;;2079369;27;100000;-16
2021/09/16 08:26:10;;;;;;;18.83;8.35;;;;;;;;;;2077750;28;99980;-16
2021/09/16 08:27:13;;;;;;;24.23;8.30;;;;;;;;;;2075628;28;100547;-16
2021/09/16 08:28:14;;;;;;;19.90;8.57;;;;;;;;;;2079351;28;99988;-16
2021/09/16 08:29:15;;;;;;;21.10;8.32;;;;;;;;;;2080166;28;100062;-17
2021/09/16 08:30:17;;;;;;;17.55;8.40;;;;;;;;;;2080929;28;100253;-16
2021/09/16 08:31:19;;;;;;;19.63;8.45;;;;;;;;;;2080626;27;100827;-16
2021/09/16 08:32:20;;;;;;;24.13;8.88;;;;;;;;;;2080579;27;99843;-16
2021/09/16 08:33:22;;;;;;;24.90;9.90;;;;;;;;;;2084097;27;100324;-18
2021/09/16 08:34:25;;;;;;;27.48;9.65;;;;;;;;;;2081629;27;100112;-15
2021/09/16 08:35:26;;;;;;;20.05;9.18;;;;;;;;;;2084337;27;100826;-17
2021/09/16 08:36:28;;;;;;;21.50;8.98;;;;;;;;;;2077667;28;99952;-16
2021/09/16 08:37:29;;;;;;;16.60;8.77;;;;;;;;;;2072273;28;100037;-16
2021/09/16 08:38:30;;;;;;;27.52;9.82;;;;;;;;;;2071848;28;99953;-16
2021/09/16 08:39:32;;;;;;;17.98;9.27;;;;;;;;;;2072059;28;100021;-16
2021/09/16 08:40:33;;;;;;;19.63;8.65;;;;;;;;;;2074590;28;100002;-15
2021/09/16 08:41:36;;;;;;;20.95;8.23;;;;;;;;;;2069762;28;100149;-17
2021/09/16 08:42:39;;;;;;;19.10;7.88;;;;;;;;;;2073418;28;100139;-17
2021/09/16 08:43:42;;;;;;;26.33;9.07;;;;;;;;;;2071620;28;100900;-18
2021/09/16 08:44:44;;;;;;;16.48;7.68;;;;;;;;;;2079585;28;100066;-17
2021/09/16 08:45:47;;;;;;;16.17;7.53;;;;;;;;;;2080575;27;99973;-17
2021/09/16 08:46:49;;;;;;;17.15;7.93;;;;;;;;;;2076519;27;99923;-17
2021/09/16 08:47:52;;;;;;;16.35;6.63;;;;;;;;;;2072824;28;99862;-17
2021/09/16 08:48:54;;;;;;;17.27;7.60;;;;;;;;;;2071925;28;100278;-17
2021/09/16 08:49:55;;;;;;;21.13;7.75;;;;;;;;;;2078972;27;100506;-17
2021/09/16 08:50:57;;;;;;;19.30;8.15;;;;;;;;;;2079558;28;100302;-17
2021/09/16 08:51:58;;;;;;;18.63;7.78;;;;;;;;;;2077948;28;100032;-17
2021/09/16 08:53:00;;;;;;;13.60;6.63;;;;;;;;;;2077677;27;100113;-17
2021/09/16 08:54:01;;;;;;;16.17;7.65;;;;;;;;;;2077484;28;99981;-17
2021/09/16 08:55:04;;;;;;;14.55;7.38;;;;;;;;;;2073893;28;100451;-17
2021/09/16 08:56:06;;;;;;;16.33;7.10;;;;;;;;;;2071889;28;99934;-17
2021/09/16 08:57:14;;;;;;;19.40;6.97;;;;;;;;;;2072313;28;100074;-17
2021/09/16 08:58:18;;;;;;;14.73;7.50;;;;;;;;;;2074835;28;100064;-17
2021/09/16 08:59:19;;;;;;;14.43;7.28;;;;;;;;;;2072500;27;99842;-17
2021/09/16 09:00:20;;;;;;;14.63;7.38;;;;;;;;;;2072429;28;99846;-17
2021/09/16 09:01:21;;;;;;;17.23;7.18;;;;;;;;;;2078459;28;99907;-17
2021/09/16 09:02:23;;;;;;;16.65;7.65;;;;;;;;;;2079784;27;100031;-17
2021/09/16 09:03:24;;;;;;;14.55;7.20;;;;;;;;;;2079888;28;99957;-17
2021/09/16 09:04:25;;;;;;;15.05;7.35;;;;;;;;;;2078266;28;100101;-18
2021/09/16 09:05:29;;;;;;;16.60;6.78;;;;;;;;;;2080039;27;100040;-17
2021/09/16 09:06:42;;;;;;;20.42;7.25;;;;;;;;;;2079587;27;100004;-18
2021/09/16 09:07:48;;;;;;;21.58;8.73;;;;;;;;;;2080023;27;99928;-18
2021/09/16 09:09:20;;;;;;;15.82;7.93;;;;;;;;;;2079573;28;99955;-18
2021/09/16 09:10:31;;;;;;;16.63;7.35;;;;;;;;;;2079724;27;99919;-18
2021/09/16 09:11:32;;;;;;;21.13;7.60;;;;;;;;;;2079832;27;99978;-18
2021/09/16 09:12:36;;;;;;;17.30;8.05;;;;;;;;;;2080106;27;99934;-18
2021/09/16 09:13:41;;;;;;;21.17;8.38;;;;;;;;;;2079868;27;100136;-18
2021/09/16 09:14:45;;;;;;;24.75;9.07;;;;;;;;;;2078951;28;99905;-18
2021/09/16 09:15:56;;;;;;;24.67;9.00;;;;;;;;;;2079229;28;99976;-19
2021/09/16 09:17:00;;;;;;;18.13;8.82;;;;;;;;;;2080106;28;100196;-19
2021/09/16 09:18:16;;;;;;;27.85;8.88;;;;;;;;;;2079283;28;100026;-18
2021/09/16 09:19:19;;;;;;;18.27;8.35;;;;;;;;;;2079154;28;100242;-18
2021/09/16 09:20:20;;;;;;;23.50;7.70;;;;;;;;;;2079122;28;100025;-18
2021/09/16 09:21:21;;;;;;;17.33;7.53;;;;;;;;;;2077551;28;99850;-18
2021/09/16 09:22:34;;;;;;;22.10;8.48;;;;;;;;;;2074269;28;99968;-18
2021/09/16 09:23:42;;;;;;;19.73;8.38;;;;;;;;;;2074187;28;99952;-18
2021/09/16 09:24:46;;;;;;;16.75;8.20;;;;;;;;;;2073884;28;100480;-18
2021/09/16 09:25:47;;;;;;;16.92;7.53;;;;;;;;;;2073952;28;99982;-16
2021/09/16 09:26:48;;;;;;;18.70;7.40;;;;;;;;;;2074961;28;99797;-17
2021/09/16 09:27:52;;;;;;;;;;;;;;;;;;2074580;28;100133;-17
2021/09/16 09:28:57;;;;;;;19.45;7.18;;;;;;;;;;2073774;28;100286;-16
2021/09/16 09:30:08;;;;;;;18.33;8.50;;;;;;;;;;2074770;28;100032;-17
2021/09/16 09:31:17;;;;;;;19.58;7.20;;;;;;;;;;2074306;28;99924;-16
2021/09/16 09:32:18;;;;;;;15.80;7.00;;;;;;;;;;2073531;28;100877;-17
2021/09/16 09:33:31;;;;;;;19.08;7.47;;;;;;;;;;2072394;28;99972;-17
2021/09/16 09:34:34;;;;;;;19.48;7.43;;;;;;;;;;2074183;28;100077;-17
2021/09/16 09:35:44;;;;;;;15.52;7.18;;;;;;;;;;2074244;28;100351;-17
2021/09/16 09:36:45;;;;;;;16.52;7.53;;;;;;;;;;2074040;28;100653;-17
2021/09/16 09:37:46;;;;;;;14.48;7.05;;;;;;;;;;2065451;28;100090;-17
2021/09/16 09:39:02;;;;;;;19.30;7.70;;;;;;;;;;2065483;28;100364;-17
2021/09/16 09:40:03;;;;;;;17.35;6.97;;;;;;;;;;2072212;28;100097;-17
2021/09/16 09:41:04;;;;;;;19.45;7.13;;;;;;;;;;2069931;28;99918;-18
2021/09/16 09:42:33;;;;;;;18.20;7.20;;;;;;;;;;2073163;28;100102;-17
2021/09/16 09:43:37;;;;;;;14.02;7.35;;;;;;;;;;2064912;28;100182;-17
2021/09/16 09:44:38;;;;;;;16.48;7.47;;;;;;;;;;2066107;28;99955;-18
2021/09/16 09:46:08;;;;;;;17.80;7.55;;;;;;;;;;2066270;28;99981;-17
2021/09/16 09:47:35;;;;;;;17.42;6.93;;;;;;;;;;2071243;28;100349;-17
2021/09/16 09:49:04;;;;;;;17.27;6.85;;;;;;;;;;2074198;28;99861;-17
2021/09/16 09:50:28;;;;;;;15.50;7.10;;;;;;;;;;2075024;28;100035;-17
2021/09/16 09:51:49;;;;;;;12.57;6.55;;;;;;;;;;2074824;28;99998;-17
2021/09/16 09:52:52;;;;;;;13.20;7.40;;;;;;;;;;2074812;28;99827;-17
2021/09/16 09:53:53;;;;;;;15.70;6.97;;;;;;;;;;2073959;28;100061;-17
2021/09/16 09:54:54;;;;;;;17.70;6.80;;;;;;;;;;2074238;28;100085;-18
2021/09/16 09:55:55;;;;;;;13.27;6.45;;;;;;;;;;2074395;28;100030;-17
2021/09/16 09:57:06;;;;;;;12.18;6.85;;;;;;;;;;2073840;28;99898;-17
2021/09/16 09:58:12;;;;;;;11.25;6.35;;;;;;;;;;2074511;28;100219;-17
2021/09/16 09:59:13;;;;;;;18.92;7.72;;;;;;;;;;2073838;28;100027;-17
2021/09/16 10:00:18;;;;;;;;;;;;;;;;;;2074380;28;100398;-17
2021/09/16 10:01:35;;;;;;;14.15;7.45;;;;;;;;;;2074977;28;100009;-17
2021/09/16 10:02:39;;;;;;;12.15;6.45;;;;;;;;;;2066261;28;99949;-17
2021/09/16 10:03:40;;;;;;;12.00;6.72;;;;;;;;;;2067087;28;99959;-17
2021/09/16 10:04:41;;;;;;;;;;;;;;;;;;2074358;28;99880;-17
2021/09/16 10:05:46;;;;;;;12.60;6.50;;;;;;;;;;2074988;28;99959;-17
2021/09/16 10:06:47;;;;;;;13.73;7.05;;;;;;;;;;2074196;28;100050;-16
2021/09/16 10:07:49;;;;;;;11.15;6.40;;;;;;;;;;2074365;28;99992;-17
2021/09/16 10:09:10;;;;;;;12.80;7.20;;;;;;;;;;2074767;28;99868;-17
2021/09/16 10:10:13;;;;;;;14.98;6.78;;;;;;;;;;2074297;28;99907;-17
2021/09/16 10:11:37;;;;;;;12.52;6.45;;;;;;;;;;2074155;28;100016;-17
2021/09/16 10:12:40;;;;;;;14.57;7.35;;;;;;;;;;2074193;28;100249;-17
2021/09/16 10:13:41;;;;;;;11.48;6.15;;;;;;;;;;2074069;28;99930;-17
2021/09/16 10:14:42;;;;;;;18.80;7.00;;;;;;;;;;2074212;28;99949;-17
2021/09/16 10:15:43;;;;;;;;;;;;;;;;;;2074376;28;99990;-18
2021/09/16 10:16:46;;;;;;;16.30;6.63;;;;;;;;;;2074370;28;99978;-18
2021/09/16 10:17:49;;;;;;;12.20;6.38;;;;;;;;;;2074214;28;100213;-17
2021/09/16 10:18:51;;;;;;;13.10;7.03;;;;;;;;;;2074113;28;100582;-17
2021/09/16 10:19:52;;;;;;;16.00;6.47;;;;;;;;;;2073946;28;100150;-17
2021/09/16 10:20:55;;;;;;;9.68;6.05;;;;;;;;;;2074194;28;99852;-17
2021/09/16 10:21:59;;;;;;;15.52;6.80;;;;;;;;;;2073510;28;99963;-17
2021/09/16 10:23:08;;;;;;;13.43;6.65;;;;;;;;;;2072186;28;100744;-17
2021/09/16 10:24:17;;;;;;;13.60;6.82;;;;;;;;;;2056507;28;100074;-17
2021/09/16 10:25:23;;;;;;;14.88;7.20;;;;;;;;;;2057497;28;100014;-17
2021/09/16 10:26:38;;;;;;;16.08;6.60;;;;;;;;;;2073945;28;100104;-17
2021/09/16 10:27:46;;;;;;;17.13;7.03;;;;;;;;;;2066384;28;99866;-17
2021/09/16 10:28:48;;;;;;;14.63;6.40;;;;;;;;;;2069246;28;100026;-17
2021/09/16 10:29:51;;;;;;;14.45;6.18;;;;;;;;;;2065489;28;100051;-17
2021/09/16 10:30:54;;;;;;;11.70;5.90;;;;;;;;;;2073961;28;100131;-17
2021/09/16 10:32:05;;;;;;;12.77;6.00;;;;;;;;;;2074387;28;99996;-17
2021/09/16 10:33:18;;;;;;;14.30;6.43;;;;;;;;;;2073386;28;99912;-17
2021/09/16 10:34:45;;;;;;;14.85;6.25;;;;;;;;;;2073613;28;99876;-18
2021/09/16 10:35:59;;;;;;;14.60;6.40;;;;;;;;;;2074127;28;99971;-17
2021/09/16 10:37:10;;;;;;;12.45;6.40;;;;;;;;;;2073598;28;99793;-17
2021/09/16 10:38:22;;;;;;;;;;;;;;;;;;2074214;28;99985;-17
2021/09/16 10:39:23;;;;;;;13.73;6.28;;;;;;;;;;2074387;28;99922;-16
2021/09/16 10:40:29;;;;;;;9.57;6.35;;;;;;;;;;2073409;28;99998;-19
2021/09/16 10:41:32;;;;;;;11.30;6.20;;;;;;;;;;2073577;28;99922;-18
2021/09/16 10:42:51;;;;;;;15.95;6.65;;;;;;;;;;2073898;28;99974;-16
2021/09/16 10:43:58;;;;;;;12.05;6.50;;;;;;;;;;2073420;28;99915;-17
2021/09/16 10:45:07;;;;;;;13.85;6.25;;;;;;;;;;2072624;28;100019;-17
2021/09/16 10:46:22;;;;;;;12.38;6.30;;;;;;;;;;2072946;28;99887;-16
2021/09/16 10:47:24;;;;;;;11.45;6.20;;;;;;;;;;2073556;28;100383;-17
2021/09/16 10:48:26;;;;;;;13.32;6.07;;;;;;;;;;2066823;28;101111;-17
2021/09/16 10:49:28;;;;;;;13.38;6.65;;;;;;;;;;2068800;28;100107;-17
2021/09/16 10:50:41;;;;;;;11.85;6.13;;;;;;;;;;2073661;28;100320;-17
2021/09/16 10:51:44;;;;;;;12.63;6.15;;;;;;;;;;2074291;28;100076;-17
2021/09/16 10:52:46;;;;;;;11.45;6.13;;;;;;;;;;2072694;28;102588;-17
2021/09/16 10:53:47;;;;;;;12.80;6.50;;;;;;;;;;2072768;28;99983;-17
2021/09/16 10:54:51;;;;;;;11.25;6.25;;;;;;;;;;2072803;28;100002;-18
2021/09/16 10:55:52;;;;;;;9.60;5.70;;;;;;;;;;2072107;28;100023;-17
2021/09/16 10:57:09;;;;;;;11.70;6.18;;;;;;;;;;2068049;28;100064;-16
2021/09/16 10:58:26;;;;;;;13.50;6.45;;;;;;;;;;2073761;28;99851;-22
2021/09/16 10:59:51;;;;;;;11.48;6.07;;;;;;;;;;2073580;28;100094;-16
2021/09/16 11:01:53;;;;;;;11.23;6.05;;;;;;;;;;2073398;28;99971;-17
2021/09/16 11:03:05;;;;;;;12.70;6.50;;;;;;;;;;2082157;28;99866;-18
2021/09/16 11:04:18;;;;;;;11.77;5.87;;;;;;;;;;2070584;28;101645;-17
2021/09/16 11:05:39;;;;;;;9.98;5.75;;;;;;;;;;2073260;28;99884;-17
2021/09/16 11:06:41;;;;;;;11.10;5.90;;;;;;;;;;2081134;27;100173;-17
2021/09/16 11:07:45;;;;;;;10.80;6.05;;;;;;;;;;2080246;28;99939;-17
2021/09/16 11:09:00;;;;;;;12.70;6.10;;;;;;;;;;2070786;28;99927;-17
2021/09/16 11:10:16;;;;;;;11.20;6.25;;;;;;;;;;2062859;28;99816;-17
2021/09/16 11:11:17;;;;;;;13.13;6.45;;;;;;;;;;2063795;28;100112;-17
2021/09/16 11:12:31;;;;;;;11.65;6.50;;;;;;;;;;2063639;28;100154;-17
2021/09/16 11:13:49;;;;;;;10.30;6.22;;;;;;;;;;2061877;28;100015;-17
2021/09/16 11:14:56;;;;;;;10.90;6.30;;;;;;;;;;2061756;28;99892;-17
2021/09/16 11:15:57;;;;;;;10.25;6.03;;;;;;;;;;2062058;28;100075;-17
2021/09/16 11:17:00;;;;;;;8.57;5.70;;;;;;;;;;2062771;28;100127;-17
2021/09/16 11:18:13;;;;;;;11.20;5.88;;;;;;;;;;2051706;27;1627194;-16
2021/09/16 11:19:26;;;;;;;10.65;6.40;;;;;;;;;;2115737;27;99999;-16
2021/09/16 11:20:40;;;;;;;13.05;6.00;;;;;;;;;;2097685;27;100049;-16
2021/09/16 11:22:07;;;;;;;15.75;6.47;;;;;;;;;;2073523;28;100605;-16
2021/09/16 11:23:21;;;;;;;10.50;5.65;;;;;;;;;;2071480;28;100936;-17
2021/09/16 11:24:37;;;;;;;11.30;5.97;;;;;;;;;;2078279;28;100345;-16
2021/09/16 11:25:51;;;;;;;10.23;5.40;;;;;;;;;;2074080;28;99841;-16
2021/09/16 11:27:05;;;;;;;10.52;6.18;;;;;;;;;;2073432;28;99919;-15
2021/09/16 11:28:18;;;;;;;13.23;6.45;;;;;;;;;;2073541;28;100277;-17
2021/09/16 11:29:41;;;;;;;11.27;6.00;;;;;;;;;;2073251;28;100163;-16
2021/09/16 11:30:54;;;;;;;10.98;5.63;;;;;;;;;;2107082;27;100046;-16
2021/09/16 11:32:08;;;;;;;10.93;5.72;;;;;;;;;;2107388;27;99858;-17
2021/09/16 11:33:22;;;;;;;11.13;6.13;;;;;;;;;;2107748;27;99883;-16
2021/09/16 11:34:23;;;;;;;9.18;5.03;;;;;;;;;;2106280;27;100073;-16
2021/09/16 11:35:37;;;;;;;10.00;6.03;;;;;;;;;;2103453;27;101358;-17
2021/09/16 11:37:16;;;;;;;9.57;5.78;;;;;;;;;;2106597;27;99943;-16
2021/09/16 11:38:28;;;;;;;14.80;5.95;;;;;;;;;;2073399;28;100025;-16
2021/09/16 11:39:40;;;;;;;10.40;5.67;;;;;;;;;;2073252;28;100371;-16
2021/09/16 11:40:52;;;;;;;14.23;6.10;;;;;;;;;;2073402;28;100026;-15
2021/09/16 11:42:13;;;;;;;13.20;6.00;;;;;;;;;;2049578;27;1561320;-16
2021/09/16 11:43:25;;;;;;;13.88;5.53;;;;;;;;;;2089483;27;100259;-17
2021/09/16 11:44:54;;;;;;;11.20;6.33;;;;;;;;;;2087642;27;100114;-16
2021/09/16 11:46:13;;;;;;;10.15;5.40;;;;;;;;;;2071272;28;99931;-17
2021/09/16 11:47:27;;;;;;;13.70;5.80;;;;;;;;;;2073506;28;99886;-16
2021/09/16 11:48:38;;;;;;;13.32;6.05;;;;;;;;;;2057396;27;1592022;-17
2021/09/16 11:49:48;;;;;;;12.05;6.18;;;;;;;;;;2057810;27;1550775;-16
2021/09/16 11:51:01;;;;;;;10.40;5.83;;;;;;;;;;2068681;28;100118;-15
2021/09/16 11:52:22;;;;;;;8.30;4.55;;;;;;;;;;2073658;28;100069;-17
2021/09/16 11:53:41;;;;;;;8.07;5.35;;;;;;;;;;2072714;28;99942;-17
2021/09/16 11:55:11;;;;;;;9.27;4.88;;;;;;;;;;2076437;28;99911;-16
2021/09/16 11:56:22;;;;;;;9.85;5.57;;;;;;;;;;2073200;28;100077;-17
2021/09/16 11:57:51;;;;;;;;;;;;;;;;;;2056439;27;1638951;-16
2021/09/16 11:59:08;;;;;;;10.80;5.40;;;;;;;;;;2074206;28;99828;-16
2021/09/16 12:00:29;;;;;;;13.75;5.90;;;;;;;;;;2074050;28;99948;-17
2021/09/16 12:01:42;;;;;;;8.98;5.43;;;;;;;;;;2073580;28;100032;-16
2021/09/16 12:02:58;;;;;;;12.00;5.70;;;;;;;;;;2073934;28;99914;-16
2021/09/16 12:04:16;;;;;;;8.77;5.18;;;;;;;;;;2116086;27;100027;-16
2021/09/16 12:05:36;;;;;;;10.95;5.68;;;;;;;;;;2124748;27;99819;-16
2021/09/16 12:06:58;;;;;;;10.10;5.57;;;;;;;;;;2116407;27;99823;-16
2021/09/16 12:08:22;;;;;;;11.43;5.65;;;;;;;;;;2124400;27;100140;-16
2021/09/16 12:09:34;;;;;;;10.70;4.85;;;;;;;;;;2125081;27;99940;-16
2021/09/16 12:10:47;;;;;;;11.07;4.97;;;;;;;;;;2074178;28;100115;-16
2021/09/16 12:12:00;;;;;;;10.70;4.65;;;;;;;;;;2073511;28;99997;-17
2021/09/16 12:13:15;;;;;;;12.90;4.97;;;;;;;;;;2073957;28;99896;-16
2021/09/16 12:14:28;;;;;;;8.98;4.60;;;;;;;;;;2074034;28;99985;-16
2021/09/16 12:15:40;;;;;;;7.63;5.10;;;;;;;;;;2073890;28;101668;-17
2021/09/16 12:17:02;;;;;;;8.38;4.80;;;;;;;;;;2088481;27;101079;-16
2021/09/16 12:18:16;;;;;;;9.65;4.22;;;;;;;;;;2104121;27;99986;-16
2021/09/16 12:19:27;;;;;;;12.75;4.78;;;;;;;;;;2036030;27;2244933;-16
2021/09/16 12:20:41;;;;;;;8.43;4.93;;;;;;;;;;2073491;28;100089;-17
2021/09/16 12:21:54;;;;;;;8.77;4.90;;;;;;;;;;2073492;28;99980;-20
2021/09/16 12:23:10;;;;;;;10.07;5.32;;;;;;;;;;2089119;27;100019;-14
2021/09/16 12:24:28;;;;;;;14.57;5.10;;;;;;;;;;2069639;28;100141;-15
2021/09/16 12:26:14;;;;;;;9.63;4.35;;;;;;;;;;2107993;27;100072;-16
2021/09/16 12:27:26;;;;;;;10.32;5.25;;;;;;;;;;2073312;28;99938;-16
2021/09/16 12:28:51;;;;;;;11.50;4.38;;;;;;;;;;2117424;27;100026;-16
2021/09/16 12:30:14;;;;;;;9.55;4.85;;;;;;;;;;2072906;28;100004;-17
2021/09/16 12:31:33;;;;;;;10.85;5.28;;;;;;;;;;2073272;28;100058;-17
2021/09/16 12:32:46;;;;;;;15.60;5.88;;;;;;;;;;2073588;28;100015;-16
2021/09/16 12:34:04;;;;;;;9.57;4.87;;;;;;;;;;2073346;28;102269;-17
2021/09/16 12:35:17;;;;;;;11.32;5.20;;;;;;;;;;2063020;27;1562709;-15
2021/09/16 12:36:29;;;;;;;10.30;5.07;;;;;;;;;;2073438;28;99989;-17
2021/09/16 12:37:41;;;;;;;12.93;4.90;;;;;;;;;;2089327;27;99903;-16
2021/09/16 12:39:00;;;;;;;12.20;4.73;;;;;;;;;;2073411;28;100507;-17
2021/09/16 12:40:26;;;;;;;11.43;5.22;;;;;;;;;;2073175;28;100049;-15
2021/09/16 12:41:42;;;;;;;10.43;4.63;;;;;;;;;;2072956;28;99915;-16
2021/09/16 12:43:05;;;;;;;15.75;5.40;;;;;;;;;;2073573;28;100034;-15
2021/09/16 12:44:42;;;;;;;8.75;4.78;;;;;;;;;;2115764;27;99941;-17
2021/09/16 12:45:56;;;;;;;12.48;5.40;;;;;;;;;;2072402;28;100138;-16
2021/09/16 12:47:13;;;;;;;18.65;6.85;;;;;;;;;;2072713;28;99981;-17
2021/09/16 12:48:15;;;;;;;14.35;6.35;;;;;;;;;;2072873;28;99782;-16
2021/09/16 12:49:37;;;;;;;14.35;5.97;;;;;;;;;;2073124;28;100150;-18
2021/09/16 12:51:06;;;;;;;11.45;4.82;;;;;;;;;;2073949;28;99977;-16
2021/09/16 12:52:31;;;;;;;198.85;36.65;;;;;;;;;;2090265;27;99871;-18
2021/09/16 12:53:44;;;;;;;633.92;187.82;;;;;;;;;;2090636;27;99771;-16
2021/09/16 12:55:05;;;;;;;1158.78;449.52;;;;;;;;;;2074096;28;99883;-17
2021/09/16 12:56:17;;;;;;;502.38;173.93;;;;;;;;;;2072096;28;100101;-17
2021/09/16 12:57:36;;;;;;;566.22;200.82;;;;;;;;;;2073695;28;99953;-17
2021/09/16 12:58:49;;;;;;;303.55;95.45;;;;;;;;;;2124678;27;99846;-16
2021/09/16 13:00:06;;;;;;;434.20;145.50;;;;;;;;;;2107290;27;100334;-15
2021/09/16 13:01:30;;;;;;;460.88;158.65;;;;;;;;;;2073907;28;100277;-15
2021/09/16 13:02:50;;;;;;;320.65;103.00;;;;;;;;;;2073725;28;99936;-16
2021/09/16 13:04:04;;;;;;;353.27;106.22;;;;;;;;;;2117963;27;99958;-16
2021/09/16 13:05:28;;;;;;;351.67;113.25;;;;;;;;;;2073670;28;100005;-16
2021/09/16 13:06:41;;;;;;;346.80;111.07;;;;;;;;;;2073616;28;100063;-17
2021/09/16 13:08:09;;;;;;;377.35;113.03;;;;;;;;;;2055468;27;1595969;-16
2021/09/16 13:09:29;;;;;;;368.58;114.38;;;;;;;;;;2068255;28;100043;-16
2021/09/16 13:10:46;;;;;;;314.02;99.60;;;;;;;;;;2073154;28;99950;-16
2021/09/16 13:12:16;;;;;;;336.90;110.47;;;;;;;;;;2073507;28;99967;-16
2021/09/16 13:13:30;;;;;;;340.17;107.10;;;;;;;;;;2073793;28;100007;-17
2021/09/16 13:15:43;;;;;;;341.51;110.43;;;;;;;;;;4171969;27;1616278;-16
2021/09/16 13:16:56;;;;;;;341.13;108.90;;;;;;;;;;2067320;28;100207;-16
2021/09/16 13:18:07;;;;;;;340.77;108.87;;;;;;;;;;2073510;28;100047;-16
2021/09/16 13:19:19;;;;;;;331.30;104.82;;;;;;;;;;2073307;28;100088;-18
2021/09/16 13:20:35;;;;;;;326.77;108.85;;;;;;;;;;2117430;27;99958;-16
2021/09/16 13:21:46;;;;;;;332.58;107.93;;;;;;;;;;2059898;27;1544842;-18
2021/09/16 13:22:58;;;;;;;339.23;103.80;;;;;;;;;;2073282;28;100253;-16
2021/09/16 13:24:11;;;;;;;331.85;106.78;;;;;;;;;;2090133;27;100092;-17
2021/09/16 13:25:24;;;;;;;327.98;102.95;;;;;;;;;;2031433;27;1555539;-16
2021/09/16 13:26:36;;;;;;;329.05;105.63;;;;;;;;;;2073348;28;100061;-16
2021/09/16 13:27:48;;;;;;;349.47;114.20;;;;;;;;;;2073114;28;100263;-17
2021/09/16 13:29:00;;;;;;;327.55;108.70;;;;;;;;;;2073224;28;100034;-16
2021/09/16 13:30:12;;;;;;;312.40;98.73;;;;;;;;;;2073583;28;100842;-16
2021/09/16 13:31:25;;;;;;;290.42;97.40;;;;;;;;;;2073091;28;99986;-17
2021/09/16 13:32:37;;;;;;;304.10;101.03;;;;;;;;;;2074697;28;99970;-16
2021/09/16 13:33:51;;;;;;;310.98;103.88;;;;;;;;;;2085027;27;99956;-17
2021/09/16 13:35:05;;;;;;;272.45;91.93;;;;;;;;;;2072812;28;100567;-20
2021/09/16 13:36:17;;;;;;;268.85;87.18;;;;;;;;;;2069849;28;100021;-17
2021/09/16 13:37:33;;;;;;;305.55;95.57;;;;;;;;;;2066982;28;100057;-18
2021/09/16 13:38:55;;;;;;;;;;;;;;;;;;2035227;27;1541880;-15
2021/09/16 13:40:16;;;;;;;252.02;81.82;;;;;;;;;;2090266;27;100029;-15
2021/09/16 13:41:42;;;;;;;126.88;39.92;;;;;;;;;;2087350;27;100063;-14
2021/09/16 13:42:55;;;;;;;128.57;43.20;;;;;;;;;;2109902;27;100068;-14
2021/09/16 13:44:08;;;;;;;130.30;40.60;;;;;;;;;;2106158;27;100001;-17
2021/09/16 13:45:24;;;;;;;115.55;35.80;;;;;;;;;;2073441;28;102037;-15
2021/09/16 13:46:38;;;;;;;140.43;46.20;;;;;;;;;;2114305;27;100084;-18
2021/09/16 13:47:50;;;;;;;119.22;35.47;;;;;;;;;;2073625;28;100038;-20
2021/09/16 13:49:01;;;;;;;95.55;27.33;;;;;;;;;;2090429;27;99918;-17
2021/09/16 13:50:16;;;;;;;116.90;40.73;;;;;;;;;;2070364;28;100236;-18
2021/09/16 13:51:30;;;;;;;102.25;33.42;;;;;;;;;;2098694;27;99866;-19
2021/09/16 13:52:47;;;;;;;109.65;37.78;;;;;;;;;;2074978;28;100124;-16
2021/09/16 13:54:01;;;;;;;93.90;29.42;;;;;;;;;;2072443;28;100028;-17
2021/09/16 13:55:14;;;;;;;91.10;31.85;;;;;;;;;;2073469;28;99870;-19
2021/09/16 13:56:27;;;;;;;120.45;38.05;;;;;;;;;;2081397;28;99995;-21
2021/09/16 13:57:39;;;;;;;67.90;22.87;;;;;;;;;;2081151;28;100213;-17
2021/09/16 13:58:50;;;;;;;75.75;25.38;;;;;;;;;;2070887;28;100194;-16
2021/09/16 14:00:04;;;;;;;77.63;25.87;;;;;;;;;;2069128;28;100369;-16
2021/09/16 14:01:19;;;;;;;69.45;22.55;;;;;;;;;;2078662;28;100508;-18
2021/09/16 14:02:32;;;;;;;65.47;22.25;;;;;;;;;;2072585;28;99919;-17
2021/09/16 14:03:59;;;;;;;74.22;25.55;;;;;;;;;;2087572;27;100544;-15
2021/09/16 14:05:11;;;;;;;84.43;29.60;;;;;;;;;;2072843;28;100163;-16
2021/09/16 14:06:23;;;;;;;84.03;26.75;;;;;;;;;;2071086;28;100268;-17
2021/09/16 14:07:37;;;;;;;95.17;29.17;;;;;;;;;;2071836;28;100686;-14
2021/09/16 14:08:49;;;;;;;101.63;29.65;;;;;;;;;;2071328;28;99896;-17
2021/09/16 14:10:01;;;;;;;85.03;29.73;;;;;;;;;;2057306;27;1559907;-17
2021/09/16 14:11:14;;;;;;;90.35;28.67;;;;;;;;;;2073124;28;99980;-17
2021/09/16 14:12:26;;;;;;;78.18;27.15;;;;;;;;;;2072225;28;100161;-16
2021/09/16 14:13:38;;;;;;;79.90;28.17;;;;;;;;;;2073059;28;100271;-14
2021/09/16 14:14:50;;;;;;;98.95;30.30;;;;;;;;;;2073052;28;99907;-15
2021/09/16 14:16:02;;;;;;;60.00;20.50;;;;;;;;;;2057496;27;1629239;-14
2021/09/16 14:17:14;;;;;;;83.53;28.27;;;;;;;;;;2107987;27;100067;-17
2021/09/16 14:18:27;;;;;;;76.63;24.88;;;;;;;;;;2072550;28;99973;-17
2021/09/16 14:19:42;;;;;;;67.80;22.67;;;;;;;;;;2071995;28;99899;-18
2021/09/16 14:20:54;;;;;;;81.75;25.17;;;;;;;;;;2068074;28;100472;-15
2021/09/16 14:22:08;;;;;;;71.65;24.65;;;;;;;;;;2076941;28;100174;-16
2021/09/16 14:23:21;;;;;;;76.18;25.30;;;;;;;;;;2069715;28;100421;-15
2021/09/16 14:24:31;;;;;;;68.78;24.38;;;;;;;;;;2047867;27;1603598;-15
2021/09/16 14:25:41;;;;;;;69.38;23.85;;;;;;;;;;2035821;27;1598979;-19
2021/09/16 14:26:54;;;;;;;80.07;26.87;;;;;;;;;;2070420;28;100331;-14
2021/09/16 14:28:06;;;;;;;87.10;29.17;;;;;;;;;;2068312;28;100080;-17
2021/09/16 14:29:18;;;;;;;72.27;28.20;;;;;;;;;;2082334;27;100316;-16
2021/09/16 14:30:30;;;;;;;73.40;24.40;;;;;;;;;;2072099;28;102224;-15
2021/09/16 14:31:44;;;;;;;69.15;23.05;;;;;;;;;;2063035;28;100286;-14
2021/09/16 14:33:00;;;;;;;73.95;24.13;;;;;;;;;;2113670;27;99973;-16
2021/09/16 14:34:12;;;;;;;82.78;26.50;;;;;;;;;;2072201;28;100045;-17
2021/09/16 14:35:26;;;;;;;74.55;26.30;;;;;;;;;;2074339;28;99930;-16
2021/09/16 14:36:43;;;;;;;68.70;24.17;;;;;;;;;;2080411;28;100112;-18
2021/09/16 14:38:05;;;;;;;80.60;26.98;;;;;;;;;;2098656;27;100043;-16
2021/09/16 14:39:19;;;;;;;68.43;25.90;;;;;;;;;;2114436;27;99991;-15
2021/09/16 14:40:36;;;;;;;68.13;22.85;;;;;;;;;;2130564;27;101362;-17
2021/09/16 14:41:51;;;;;;;71.60;24.25;;;;;;;;;;2115417;27;100488;-15
2021/09/16 14:53:34;;;;;;;66.95;22.25;;;;;;;;;;2086859;27;100093;-13
2021/09/16 14:54:47;;;;;;;66.00;22.98;;;;;;;;;;2073165;28;99951;-16
2021/09/16 14:56:03;;;;;;;67.50;22.90;;;;;;;;;;2116694;27;99871;-16
2021/09/16 14:57:20;;;;;;;71.40;23.65;;;;;;;;;;2076504;28;99921;-15
2021/09/16 14:58:33;;;;;;;61.13;22.25;;;;;;;;;;2047709;28;100024;-16
2021/09/16 14:59:48;;;;;;;62.90;22.65;;;;;;;;;;2120558;27;102720;-15
2021/09/16 15:01:02;;;;;;;60.70;22.58;;;;;;;;;;2124127;27;99970;-13
2021/09/16 15:02:14;;;;;;;63.85;24.38;;;;;;;;;;2071492;28;100030;-15
2021/09/16 15:03:26;;;;;;;64.68;23.70;;;;;;;;;;2072944;28;100156;-16
2021/09/16 15:04:36;;;;;;;58.65;21.58;;;;;;;;;;2049184;27;1681983;-16
2021/09/16 15:05:52;;;;;;;64.25;22.92;;;;;;;;;;1897806;27;6114418;-16
2021/09/16 15:07:09;;;;;;;70.20;23.90;;;;;;;;;;2113384;27;100325;-16
2021/09/16 15:08:21;;;;;;;70.18;24.17;;;;;;;;;;2068772;28;100129;-16
2021/09/16 15:09:32;;;;;;;57.50;22.15;;;;;;;;;;2020145;27;1538223;-17
2021/09/16 15:10:46;;;;;;;66.07;21.60;;;;;;;;;;2106817;27;99943;-15
2021/09/16 15:11:59;;;;;;;64.30;23.02;;;;;;;;;;2055306;27;99977;-14
2021/09/16 15:13:12;;;;;;;66.38;22.80;;;;;;;;;;2106727;27;99931;-15
2021/09/16 15:14:26;;;;;;;64.38;22.17;;;;;;;;;;2055587;28;99921;-14
2021/09/16 15:15:39;;;;;;;58.75;22.30;;;;;;;;;;2106784;27;99930;-15
2021/09/16 15:16:52;;;;;;;59.35;20.38;;;;;;;;;;2080032;28;99878;-15
2021/09/16 15:18:06;;;;;;;64.40;23.40;;;;;;;;;;2101267;27;100015;-18
2021/09/16 15:19:21;;;;;;;63.70;22.70;;;;;;;;;;2118926;27;99985;-17
2021/09/16 15:20:34;;;;;;;66.65;22.83;;;;;;;;;;2079522;28;100370;-14
2021/09/16 15:21:45;;;;;;;58.73;20.47;;;;;;;;;;2072870;28;100420;-15
2021/09/16 15:22:57;;;;;;;72.37;22.87;;;;;;;;;;2070884;28;103545;-17
2021/09/16 15:24:10;;;;;;;66.68;21.77;;;;;;;;;;2073133;28;100765;-15
2021/09/16 15:25:22;;;;;;;58.17;21.05;;;;;;;;;;2072740;28;100018;-17
2021/09/16 15:26:35;;;;;;;50.67;20.30;;;;;;;;;;2124046;27;99990;-13
2021/09/16 15:27:48;;;;;;;53.58;21.38;;;;;;;;;;2115329;27;100217;-13
2021/09/16 15:29:02;;;;;;;61.92;22.30;;;;;;;;;;2106600;27;100292;-14